Time;durP1;ratioP1;P1;durP2;ratioP2;P2;SDS_P1;SDS_P2;PMS_P1;PMS_P2;Temp;Humidity;BMP_temperature;BMP_pressure;BME280_temperature;BME280_humidity;BME280_pressure;Samples;Min_cycle;Max_cycle;Signal;HPM_P1;HPM_P2
2023/02/04 00:01:44;;;;;;;18.53;3.10;;;8.60;96.80;;;;;;5053888;28;20041;-83
2023/02/04 00:04:13;;;;;;;16.47;2.53;;;8.60;96.80;;;;;;5052673;28;20036;-83
2023/02/04 00:06:38;;;;;;;24.73;2.90;;;8.60;96.90;;;;;;5019335;28;20392;-83
2023/02/04 00:09:05;;;;;;;21.90;3.27;;;8.50;97.00;;;;;;5036374;28;20025;-83
2023/02/04 00:11:30;;;;;;;16.60;2.20;;;8.50;97.00;;;;;;5053036;28;20559;-83
2023/02/04 00:13:56;;;;;;;17.87;3.37;;;8.60;97.10;;;;;;5052721;28;20033;-84
2023/02/04 00:16:22;;;;;;;17.73;2.70;;;8.50;97.00;;;;;;5035857;28;20033;-83
2023/02/04 00:18:47;;;;;;;17.93;2.30;;;8.50;97.10;;;;;;5019861;28;20068;-84
2023/02/04 00:21:13;;;;;;;17.17;2.37;;;8.50;97.00;;;;;;5036045;28;20115;-83
2023/02/04 00:23:40;;;;;;;19.07;3.07;;;8.50;97.00;;;;;;5035517;28;20112;-83
2023/02/04 00:26:06;;;;;;;20.10;2.23;;;8.50;97.10;;;;;;5052279;28;20443;-83
2023/02/04 00:28:31;;;;;;;14.13;1.73;;;8.40;97.10;;;;;;5035362;28;20029;-83
2023/02/04 00:30:57;;;;;;;17.53;2.40;;;8.40;97.10;;;;;;5019292;28;20025;-82
2023/02/04 00:33:22;;;;;;;19.97;3.03;;;8.40;97.10;;;;;;5052207;28;20174;-82
2023/02/04 00:35:48;;;;;;;17.53;3.03;;;8.30;97.10;;;;;;5052754;28;20489;-82
2023/02/04 00:38:14;;;;;;;18.57;3.50;;;8.30;97.10;;;;;;5035749;28;20038;-83
2023/02/04 00:40:39;;;;;;;16.57;2.67;;;8.30;97.20;;;;;;5035484;28;20481;-82
2023/02/04 00:43:05;;;;;;;24.43;3.77;;;8.30;97.20;;;;;;5035722;28;20029;-83
2023/02/04 00:45:31;;;;;;;15.10;2.50;;;8.30;97.20;;;;;;5035883;28;20129;-83
2023/02/04 00:47:56;;;;;;;20.40;3.40;;;8.20;97.30;;;;;;5053464;28;20048;-83
2023/02/04 00:50:22;;;;;;;19.03;2.60;;;8.20;97.30;;;;;;5057496;28;20358;-83
2023/02/04 00:52:48;;;;;;;18.27;2.63;;;8.20;97.60;;;;;;5023130;28;20044;-82
2023/02/04 00:55:15;;;;;;;14.80;2.77;;;8.20;97.40;;;;;;5058003;28;20024;-83
2023/02/04 00:57:41;;;;;;;25.83;2.70;;;8.20;97.50;;;;;;5023662;28;20466;-83
2023/02/04 01:00:08;;;;;;;24.60;2.27;;;8.20;97.50;;;;;;5039979;28;20375;-83
2023/02/04 01:02:34;;;;;;;16.27;3.27;;;8.20;97.50;;;;;;5055883;28;20075;-83
2023/02/04 01:04:59;;;;;;;15.97;3.00;;;8.20;97.50;;;;;;5023296;28;20049;-83
2023/02/04 01:07:25;;;;;;;10.43;2.10;;;8.20;97.60;;;;;;5055788;28;20029;-83
2023/02/04 01:09:51;;;;;;;13.40;1.83;;;8.20;97.60;;;;;;5039404;28;20026;-84
2023/02/04 01:12:16;;;;;;;15.70;3.20;;;8.10;97.50;;;;;;5039274;28;20029;-82
2023/02/04 01:14:42;;;;;;;18.50;3.03;;;8.10;97.60;;;;;;5039151;28;20040;-83
2023/02/04 01:17:08;;;;;;;16.80;1.80;;;8.10;97.60;;;;;;5039057;28;20036;-83
2023/02/04 01:19:33;;;;;;;13.23;2.37;;;8.00;97.60;;;;;;5056037;28;20108;-83
2023/02/04 01:21:59;;;;;;;15.53;2.33;;;7.90;97.60;;;;;;5039144;28;20549;-83
2023/02/04 01:24:25;;;;;;;14.40;2.97;;;7.90;97.60;;;;;;5045707;28;20088;-83
2023/02/04 01:26:50;;;;;;;29.63;2.90;;;7.90;97.60;;;;;;5066028;28;20029;-83
2023/02/04 01:29:16;;;;;;;21.57;2.40;;;7.80;97.60;;;;;;5046371;28;20385;-83
2023/02/04 01:31:41;;;;;;;22.20;2.97;;;7.80;97.70;;;;;;5043313;28;20718;-83
2023/02/04 01:34:07;;;;;;;17.87;2.67;;;7.80;97.90;;;;;;5042042;28;20048;-82
2023/02/04 01:36:33;;;;;;;16.90;3.03;;;7.80;98.00;;;;;;5024126;28;20119;-82
2023/02/04 01:38:59;;;;;;;21.73;2.57;;;7.80;98.10;;;;;;5023617;28;20030;-82
2023/02/04 01:41:26;;;;;;;19.43;1.97;;;7.90;98.20;;;;;;5056048;28;20029;-82
2023/02/04 01:43:52;;;;;;;21.60;2.67;;;7.90;98.30;;;;;;5056461;28;20032;-83
2023/02/04 01:46:18;;;;;;;16.30;2.77;;;7.90;98.30;;;;;;5055050;28;20033;-82
2023/02/04 01:48:44;;;;;;;14.70;2.27;;;7.90;98.30;;;;;;5038882;28;20366;-83
2023/02/04 01:51:12;;;;;;;12.80;2.53;;;7.90;98.30;;;;;;5056328;28;20024;-82
2023/02/04 01:53:38;;;;;;;15.80;2.53;;;7.80;98.30;;;;;;5056506;28;20477;-83
2023/02/04 01:56:30;;;;;;;20.23;2.40;;;7.80;98.40;;;;;;5055188;28;20025;-83
2023/02/04 01:58:57;;;;;;;15.43;2.67;;;7.80;98.50;;;;;;5053641;28;20108;-83
2023/02/04 02:01:44;;;;;;;20.77;2.67;;;7.80;98.50;;;;;;5037890;28;20021;-83
2023/02/04 02:04:12;;;;;;;19.43;3.17;;;7.70;98.60;;;;;;5054928;28;20435;-83
2023/02/04 02:06:41;;;;;;;15.57;2.50;;;7.70;98.70;;;;;;5054769;28;20120;-83
2023/02/04 02:09:07;;;;;;;24.30;2.77;;;7.70;98.80;;;;;;5054637;28;20103;-83
2023/02/04 02:11:32;;;;;;;19.30;3.20;;;7.70;98.90;;;;;;5037921;28;20530;-83
2023/02/04 02:13:59;;;;;;;16.57;2.63;;;7.70;99.00;;;;;;5037774;28;20060;-82
2023/02/04 02:16:24;;;;;;;15.70;2.50;;;7.70;99.10;;;;;;5054474;28;20032;-82
2023/02/04 02:18:53;;;;;;;15.07;2.60;;;7.70;99.20;;;;;;5037931;28;20393;-82
2023/02/04 02:21:26;;;;;;;17.20;2.37;;;7.60;99.20;;;;;;5054494;28;20051;-82
2023/02/04 02:23:56;;;;;;;12.13;2.73;;;7.60;99.30;;;;;;5054675;28;20362;-82
2023/02/04 02:26:23;;;;;;;22.70;3.03;;;7.60;99.50;;;;;;5056087;28;20032;-82
2023/02/04 02:28:50;;;;;;;16.63;2.53;;;7.60;99.60;;;;;;5038261;28;20039;-82
2023/02/04 02:31:18;;;;;;;22.10;2.87;;;7.50;99.60;;;;;;5054655;28;20057;-81
2023/02/04 02:33:45;;;;;;;19.60;2.63;;;7.50;99.90;;;;;;5055421;28;20047;-82
2023/02/04 02:36:10;;;;;;;26.43;4.27;;;7.40;99.90;;;;;;5053765;28;20029;-82
2023/02/04 02:38:36;;;;;;;20.17;2.87;;;7.50;99.90;;;;;;5054314;28;20038;-81
2023/02/04 02:41:03;;;;;;;13.37;2.60;;;7.50;99.90;;;;;;5054438;28;20017;-82
2023/02/04 02:43:29;;;;;;;23.60;2.93;;;7.40;99.90;;;;;;5054502;28;20033;-83
2023/02/04 02:45:58;;;;;;;25.80;2.80;;;7.40;99.90;;;;;;5037866;28;20036;-85
2023/02/04 02:48:24;;;;;;;24.00;3.60;;;7.30;99.90;;;;;;5054265;28;20025;-83
2023/02/04 02:50:50;;;;;;;18.10;2.60;;;7.30;99.90;;;;;;5055644;28;20036;-83
2023/02/04 02:53:18;;;;;;;20.33;4.20;;;7.30;99.90;;;;;;5021279;28;20170;-85
2023/02/04 02:55:44;;;;;;;23.73;3.73;;;7.20;99.90;;;;;;5054180;28;20021;-84
2023/02/04 02:58:31;;;;;;;27.20;3.43;;;7.20;99.90;;;;;;5053922;28;20039;-85
2023/02/04 03:00:59;;;;;;;21.00;3.00;;;7.20;99.90;;;;;;5054131;28;20023;-85
2023/02/04 03:03:38;;;;;;;34.63;4.23;;;7.10;99.90;;;;;;5055569;28;20032;-85
2023/02/04 03:06:07;;;;;;;26.67;2.90;;;7.10;99.90;;;;;;5053430;28;20025;-82
2023/02/04 03:08:33;;;;;;;21.17;2.73;;;7.00;99.90;;;;;;5054364;28;20040;-84
2023/02/04 03:10:58;;;;;;;19.33;3.50;;;7.00;99.90;;;;;;5037235;28;20052;-84
2023/02/04 03:13:24;;;;;;;19.83;3.43;;;7.00;99.90;;;;;;5053868;28;20067;-83
2023/02/04 03:15:50;;;;;;;28.87;4.67;;;6.90;99.90;;;;;;5055274;28;20021;-83
2023/02/04 03:18:18;;;;;;;15.77;3.23;;;6.90;99.90;;;;;;5039847;28;20507;-83
2023/02/04 03:20:44;;;;;;;21.67;2.73;;;6.90;99.90;;;;;;5071425;28;20032;-82
2023/02/04 03:23:10;;;;;;;20.53;2.53;;;6.80;99.90;;;;;;5032123;28;20025;-83
2023/02/04 03:25:36;;;;;;;23.70;3.07;;;6.80;99.90;;;;;;5039313;28;20389;-84
2023/02/04 03:28:03;;;;;;;22.17;3.40;;;6.80;99.90;;;;;;5054174;28;20033;-83
2023/02/04 03:30:28;;;;;;;15.93;2.30;;;6.80;99.90;;;;;;5037349;28;20437;-85
2023/02/04 03:32:54;;;;;;;18.47;2.20;;;6.80;99.90;;;;;;5053702;28;20090;-84
2023/02/04 03:35:20;;;;;;;17.87;3.43;;;6.70;99.90;;;;;;5053493;28;20033;-84
2023/02/04 03:37:46;;;;;;;15.70;2.77;;;6.70;99.90;;;;;;5053457;28;20029;-84
2023/02/04 03:40:12;;;;;;;19.30;2.80;;;6.60;99.90;;;;;;5053535;28;20084;-85
2023/02/04 03:42:37;;;;;;;24.00;2.97;;;6.60;99.90;;;;;;5053183;28;20120;-85
2023/02/04 03:45:03;;;;;;;18.10;2.70;;;6.50;99.90;;;;;;5020356;28;20112;-84
2023/02/04 03:47:29;;;;;;;22.83;3.00;;;6.50;99.90;;;;;;5036590;28;20029;-83
2023/02/04 03:49:55;;;;;;;20.10;2.93;;;6.40;99.90;;;;;;5036283;28;20082;-84
2023/02/04 03:52:20;;;;;;;15.87;2.67;;;6.40;99.90;;;;;;5053212;28;20021;-83
2023/02/04 03:54:46;;;;;;;19.00;2.97;;;6.30;99.90;;;;;;5036346;28;20052;-83
2023/02/04 03:57:12;;;;;;;15.23;2.47;;;6.30;99.90;;;;;;5036458;28;20127;-83
2023/02/04 03:59:38;;;;;;;19.10;3.30;;;6.30;99.90;;;;;;5052575;28;20033;-83
2023/02/04 04:02:03;;;;;;;26.50;4.07;;;6.20;99.90;;;;;;5036242;28;20033;-83
2023/02/04 04:04:29;;;;;;;23.63;3.37;;;6.20;99.90;;;;;;5036427;28;20032;-83
2023/02/04 04:06:55;;;;;;;23.23;3.20;;;6.20;99.90;;;;;;5052722;28;20048;-83
2023/02/04 04:09:20;;;;;;;19.97;2.80;;;6.20;99.90;;;;;;5052708;28;20595;-83
2023/02/04 04:11:46;;;;;;;21.77;3.43;;;6.10;99.90;;;;;;5036407;28;20489;-84
2023/02/04 04:14:12;;;;;;;28.37;3.60;;;6.00;99.90;;;;;;5036710;28;20447;-84
2023/02/04 04:16:38;;;;;;;21.83;2.83;;;6.00;99.90;;;;;;5036366;28;20029;-83
2023/02/04 04:19:03;;;;;;;14.07;2.57;;;6.00;99.90;;;;;;5052548;28;20059;-83
2023/02/04 04:21:29;;;;;;;17.27;3.03;;;6.00;99.90;;;;;;5036138;28;20075;-84
2023/02/04 04:23:55;;;;;;;21.80;3.40;;;5.90;99.90;;;;;;5053347;28;20036;-83
2023/02/04 04:26:20;;;;;;;19.73;2.10;;;5.90;99.90;;;;;;5053026;28;20442;-83
2023/02/04 04:28:46;;;;;;;18.07;3.33;;;5.80;99.90;;;;;;5052651;28;20112;-84
2023/02/04 04:31:12;;;;;;;18.10;2.67;;;5.80;99.90;;;;;;5054117;28;20085;-83
2023/02/04 04:33:38;;;;;;;25.87;3.40;;;5.80;99.90;;;;;;5035877;28;20045;-84
2023/02/04 04:36:05;;;;;;;23.03;2.60;;;5.80;99.90;;;;;;5052305;28;20384;-84
2023/02/04 04:38:30;;;;;;;21.80;3.00;;;5.80;99.90;;;;;;5052236;28;20025;-83
2023/02/04 04:40:56;;;;;;;24.90;3.30;;;5.70;99.90;;;;;;5036038;28;20124;-83
2023/02/04 04:43:21;;;;;;;19.33;3.17;;;5.80;99.90;;;;;;5036107;28;20128;-83
2023/02/04 04:45:47;;;;;;;17.70;2.67;;;5.80;99.90;;;;;;5035840;28;20065;-83
2023/02/04 04:48:13;;;;;;;14.50;2.83;;;5.80;99.90;;;;;;5052411;28;20120;-83
2023/02/04 04:50:38;;;;;;;18.10;2.50;;;5.90;99.90;;;;;;5053365;28;20060;-83
2023/02/04 04:53:05;;;;;;;23.50;3.37;;;5.80;99.90;;;;;;5035822;28;20171;-83
2023/02/04 04:55:31;;;;;;;19.23;3.37;;;5.80;99.90;;;;;;5052235;28;20496;-82
2023/02/04 04:57:57;;;;;;;15.87;2.37;;;5.70;99.90;;;;;;5052249;28;20029;-82
2023/02/04 05:00:22;;;;;;;21.30;3.13;;;5.90;99.90;;;;;;5052074;28;20028;-81
2023/02/04 05:02:48;;;;;;;23.17;3.03;;;5.90;99.90;;;;;;5035772;28;20032;-82
2023/02/04 05:05:14;;;;;;;19.13;3.47;;;5.80;99.90;;;;;;5051786;28;20025;-82
2023/02/04 05:07:39;;;;;;;21.03;3.30;;;6.00;99.90;;;;;;5052355;28;20079;-81
2023/02/04 05:10:06;;;;;;;17.13;3.57;;;6.00;99.90;;;;;;5019014;28;20055;-82
2023/02/04 05:12:32;;;;;;;24.67;3.47;;;6.00;99.90;;;;;;5052756;28;20448;-82
2023/02/04 05:14:57;;;;;;;15.00;2.90;;;6.10;99.90;;;;;;5040177;28;20037;-83
2023/02/04 05:17:23;;;;;;;20.63;2.90;;;6.00;99.90;;;;;;5072085;28;20033;-83
2023/02/04 05:19:48;;;;;;;17.90;4.43;;;6.00;99.90;;;;;;5053719;28;20041;-82
2023/02/04 05:22:14;;;;;;;22.30;3.40;;;6.10;99.90;;;;;;5055907;28;20106;-83
2023/02/04 05:24:40;;;;;;;22.90;3.57;;;6.10;99.90;;;;;;5053229;28;20473;-83
2023/02/04 05:27:05;;;;;;;25.23;4.40;;;6.10;99.90;;;;;;5035894;28;20029;-82
2023/02/04 05:29:31;;;;;;;20.37;3.63;;;6.10;99.90;;;;;;5052840;28;20118;-82
2023/02/04 05:31:56;;;;;;;20.93;2.90;;;6.10;99.90;;;;;;5035094;28;20494;-82
2023/02/04 05:34:22;;;;;;;21.20;2.83;;;6.20;99.90;;;;;;5053188;28;20045;-83
2023/02/04 05:36:48;;;;;;;17.03;2.93;;;6.20;99.90;;;;;;5055280;28;20037;-83
2023/02/04 05:39:13;;;;;;;18.33;3.27;;;6.20;99.90;;;;;;5055874;28;20025;-83
2023/02/04 05:41:39;;;;;;;13.53;2.90;;;6.20;99.90;;;;;;5055805;28;20047;-82
2023/02/04 05:44:04;;;;;;;15.43;2.60;;;6.20;99.90;;;;;;5039566;28;20037;-82
2023/02/04 05:46:30;;;;;;;20.93;3.80;;;6.20;99.90;;;;;;5069980;28;20035;-82
2023/02/04 05:48:56;;;;;;;16.27;3.10;;;6.20;99.90;;;;;;5049538;28;20031;-83
2023/02/04 05:51:21;;;;;;;21.27;3.63;;;6.20;99.90;;;;;;5051966;28;20033;-82
2023/02/04 05:53:47;;;;;;;22.40;3.33;;;6.20;99.90;;;;;;5018054;28;20434;-82
2023/02/04 05:56:13;;;;;;;22.70;3.37;;;6.30;99.90;;;;;;5017410;28;20026;-83
2023/02/04 05:58:38;;;;;;;19.07;4.57;;;6.30;99.90;;;;;;5019593;28;20388;-82
2023/02/04 06:01:04;;;;;;;17.93;3.07;;;6.30;99.90;;;;;;5019772;28;20033;-83
2023/02/04 06:03:30;;;;;;;21.27;3.43;;;6.30;99.90;;;;;;5035695;28;20117;-83
2023/02/04 06:05:56;;;;;;;25.27;3.20;;;6.30;99.90;;;;;;5036440;28;20818;-82
2023/02/04 06:08:22;;;;;;;25.90;3.30;;;6.30;99.90;;;;;;5035247;28;20501;-82
2023/02/04 06:10:47;;;;;;;29.30;3.80;;;6.30;99.90;;;;;;5036190;28;20057;-83
2023/02/04 06:13:13;;;;;;;23.80;4.13;;;6.50;99.90;;;;;;5035347;28;20075;-83
2023/02/04 06:15:39;;;;;;;21.17;3.60;;;6.40;99.90;;;;;;5018501;28;20030;-82
2023/02/04 06:18:05;;;;;;;20.33;3.57;;;6.40;99.90;;;;;;5018770;28;20424;-84
2023/02/04 06:20:31;;;;;;;21.47;2.90;;;6.40;99.90;;;;;;5047912;28;20061;-85
2023/02/04 06:22:56;;;;;;;20.33;3.83;;;6.40;99.90;;;;;;5050166;28;20067;-84
2023/02/04 06:25:22;;;;;;;17.80;3.77;;;6.50;99.90;;;;;;5036428;28;20537;-84
2023/02/04 06:27:48;;;;;;;30.40;3.80;;;6.40;99.90;;;;;;5037365;28;20640;-83
2023/02/04 06:30:14;;;;;;;22.00;3.50;;;6.40;99.90;;;;;;5054780;28;20029;-83
2023/02/04 06:32:40;;;;;;;24.00;3.23;;;6.40;99.90;;;;;;5038205;28;20428;-83
2023/02/04 06:35:06;;;;;;;20.23;3.53;;;6.40;99.90;;;;;;5055669;28;20037;-83
2023/02/04 06:37:31;;;;;;;21.03;4.57;;;6.50;99.90;;;;;;5020373;28;20044;-83
2023/02/04 06:39:57;;;;;;;23.63;3.50;;;6.40;99.90;;;;;;5054716;28;20025;-83
2023/02/04 06:42:24;;;;;;;23.97;3.87;;;6.50;99.90;;;;;;5054836;28;20112;-83
2023/02/04 06:44:50;;;;;;;22.70;4.33;;;6.50;99.90;;;;;;5053930;28;20115;-83
2023/02/04 06:47:16;;;;;;;23.13;4.53;;;6.50;99.90;;;;;;5054263;28;20029;-83
2023/02/04 06:49:42;;;;;;;22.97;3.70;;;6.50;99.90;;;;;;5037674;28;20489;-83
2023/02/04 06:52:07;;;;;;;23.33;3.90;;;6.50;99.90;;;;;;5054359;28;20028;-82
2023/02/04 06:54:33;;;;;;;19.43;4.03;;;6.60;99.90;;;;;;5053805;28;20120;-83
2023/02/04 06:57:05;;;;;;;27.07;4.33;;;6.50;99.90;;;;;;5037324;28;20064;-83
2023/02/04 06:59:35;;;;;;;24.13;3.87;;;6.50;99.90;;;;;;5054189;28;20116;-83
2023/02/04 07:02:01;;;;;;;27.43;3.60;;;6.60;99.90;;;;;;5021659;28;20556;-83
2023/02/04 07:04:26;;;;;;;26.43;4.63;;;6.60;99.90;;;;;;5054695;28;20032;-83
2023/02/04 07:06:52;;;;;;;20.57;4.30;;;6.60;99.90;;;;;;5053722;28;20028;-83
2023/02/04 07:09:18;;;;;;;19.03;3.67;;;6.60;99.90;;;;;;5053953;28;20025;-83
2023/02/04 07:11:43;;;;;;;22.17;4.20;;;6.60;99.90;;;;;;5053831;28;20048;-83
2023/02/04 07:14:09;;;;;;;26.50;4.80;;;6.50;99.90;;;;;;5054867;28;20045;-84
2023/02/04 07:16:35;;;;;;;19.33;3.73;;;6.60;99.90;;;;;;5050894;28;20044;-83
2023/02/04 07:19:01;;;;;;;20.93;5.13;;;6.50;99.90;;;;;;5037668;28;20025;-83
2023/02/04 07:21:27;;;;;;;30.13;4.80;;;6.50;99.90;;;;;;5061598;28;20029;-82
2023/02/04 07:23:52;;;;;;;30.27;6.50;;;6.50;99.90;;;;;;5055950;28;20053;-82
2023/02/04 07:26:18;;;;;;;29.60;4.50;;;6.50;99.90;;;;;;5037442;28;20028;-82
2023/02/04 07:28:44;;;;;;;21.73;6.30;;;6.50;99.90;;;;;;5056405;28;20146;-83
2023/02/04 07:31:09;;;;;;;24.93;4.73;;;6.60;99.90;;;;;;5055237;28;20093;-81
2023/02/04 07:33:35;;;;;;;18.03;4.70;;;6.60;99.90;;;;;;5053088;28;20047;-82
2023/02/04 07:36:01;;;;;;;23.57;4.67;;;6.60;99.90;;;;;;5049447;28;20079;-81
2023/02/04 07:38:26;;;;;;;24.30;5.73;;;6.60;99.90;;;;;;5029758;28;20029;-81
2023/02/04 07:40:53;;;;;;;25.97;5.47;;;6.60;99.90;;;;;;5038861;28;20080;-81
2023/02/04 07:43:18;;;;;;;24.13;5.50;;;6.70;99.90;;;;;;5049795;28;20074;-81
2023/02/04 07:45:44;;;;;;;30.63;6.07;;;6.60;99.90;;;;;;5052845;28;20025;-82
2023/02/04 07:48:10;;;;;;;25.60;6.87;;;6.60;99.90;;;;;;5068777;28;20372;-81
2023/02/04 07:50:36;;;;;;;28.77;6.80;;;6.60;99.90;;;;;;5025465;28;20029;-82
2023/02/04 07:53:02;;;;;;;22.77;5.60;;;6.60;99.90;;;;;;5043250;28;20024;-82
2023/02/04 07:55:27;;;;;;;33.83;6.60;;;6.70;99.90;;;;;;5041676;28;20025;-82
2023/02/04 07:57:54;;;;;;;23.83;5.90;;;6.70;99.90;;;;;;5018025;28;20392;-81
2023/02/04 08:00:19;;;;;;;22.90;5.13;;;6.80;99.90;;;;;;5037823;28;20021;-81
2023/02/04 08:02:45;;;;;;;34.00;6.90;;;6.80;99.90;;;;;;5030553;28;20025;-81
2023/02/04 08:05:11;;;;;;;28.87;7.10;;;6.80;99.90;;;;;;5020220;28;20477;-81
2023/02/04 08:07:37;;;;;;;31.83;6.77;;;6.80;99.90;;;;;;5042743;28;20033;-81
2023/02/04 08:10:04;;;;;;;35.37;6.83;;;6.90;99.90;;;;;;5041754;28;20537;-82
2023/02/04 08:12:30;;;;;;;36.90;6.90;;;6.90;99.90;;;;;;5040467;28;20033;-81
2023/02/04 08:14:56;;;;;;;29.47;7.47;;;6.90;99.90;;;;;;5032980;28;20548;-81
2023/02/04 08:17:22;;;;;;;29.17;5.50;;;6.90;99.90;;;;;;5015880;28;20029;-81
2023/02/04 08:19:47;;;;;;;27.80;7.43;;;7.00;99.90;;;;;;5032420;28;20489;-82
2023/02/04 08:22:13;;;;;;;25.63;6.40;;;7.00;99.90;;;;;;5015735;28;20132;-82
2023/02/04 08:24:38;;;;;;;31.20;7.07;;;7.00;99.90;;;;;;5015488;28;20026;-81
2023/02/04 08:27:04;;;;;;;20.70;6.33;;;7.10;99.90;;;;;;5033814;28;20172;-81
2023/02/04 08:29:30;;;;;;;26.03;6.43;;;7.10;99.90;;;;;;5032410;28;20040;-82
2023/02/04 08:31:55;;;;;;;23.53;5.63;;;7.10;99.90;;;;;;5033519;28;20033;-81
2023/02/04 08:34:21;;;;;;;26.17;7.20;;;7.20;99.90;;;;;;5015806;28;20498;-82
2023/02/04 08:36:47;;;;;;;29.77;8.30;;;7.20;99.90;;;;;;5015474;28;20030;-82
2023/02/04 08:39:12;;;;;;;33.47;6.80;;;7.30;99.90;;;;;;5015620;28;20029;-82
2023/02/04 08:41:38;;;;;;;23.43;6.47;;;7.30;99.90;;;;;;5015638;28;20033;-81
2023/02/04 08:44:04;;;;;;;26.27;5.67;;;7.40;99.90;;;;;;5015767;28;20072;-82
2023/02/04 08:46:29;;;;;;;27.27;5.90;;;7.50;99.90;;;;;;5032886;28;20532;-81
2023/02/04 08:48:55;;;;;;;24.27;5.60;;;7.50;99.90;;;;;;5042260;28;20044;-81
2023/02/04 08:51:21;;;;;;;24.27;5.93;;;7.60;99.90;;;;;;5042648;28;20029;-82
2023/02/04 08:53:47;;;;;;;29.27;5.77;;;7.60;99.90;;;;;;5043810;28;20056;-82
2023/02/04 08:56:16;;;;;;;21.50;6.13;;;7.70;99.90;;;;;;5040864;28;20108;-82
2023/02/04 08:58:42;;;;;;;28.63;5.43;;;7.80;99.90;;;;;;5025025;28;20477;-81
2023/02/04 09:01:10;;;;;;;27.43;5.87;;;7.90;99.90;;;;;;5041626;28;20408;-82
2023/02/04 09:03:38;;;;;;;23.40;5.50;;;8.00;99.90;;;;;;5042535;28;20026;-82
2023/02/04 09:06:04;;;;;;;31.47;6.43;;;8.00;99.90;;;;;;5027164;28;20021;-82
2023/02/04 09:08:30;;;;;;;25.90;5.33;;;8.10;99.90;;;;;;5042852;28;20025;-82
2023/02/04 09:10:56;;;;;;;24.30;6.27;;;8.20;99.90;;;;;;5046382;28;20513;-82
2023/02/04 09:13:22;;;;;;;25.40;5.90;;;8.30;99.90;;;;;;5036423;28;20485;-82
2023/02/04 09:15:47;;;;;;;20.63;5.00;;;8.40;99.90;;;;;;5043659;28;20033;-82
2023/02/04 09:18:17;;;;;;;24.80;5.23;;;8.40;99.90;;;;;;5043583;28;20028;-82
2023/02/04 09:20:44;;;;;;;34.60;6.63;;;8.60;99.90;;;;;;5060784;28;20029;-81
2023/02/04 09:23:11;;;;;;;28.13;5.40;;;8.60;99.90;;;;;;5064188;28;20085;-82
2023/02/04 09:25:41;;;;;;;26.77;4.80;;;8.60;99.90;;;;;;5061555;28;20024;-81
2023/02/04 09:28:11;;;;;;;25.47;5.80;;;8.70;99.90;;;;;;5056991;28;20028;-82
2023/02/04 09:30:38;;;;;;;22.43;5.33;;;8.80;99.90;;;;;;5039572;28;20033;-82
2023/02/04 09:33:03;;;;;;;23.47;4.83;;;8.80;99.90;;;;;;5057115;28;20480;-82
2023/02/04 09:35:29;;;;;;;27.20;5.30;;;8.80;99.90;;;;;;5054978;28;20021;-82
2023/02/04 09:37:55;;;;;;;23.90;4.60;;;8.90;99.90;;;;;;5055404;28;20025;-82
2023/02/04 09:40:21;;;;;;;21.27;4.57;;;9.00;99.90;;;;;;5055759;28;20033;-82
2023/02/04 09:42:49;;;;;;;31.20;5.13;;;9.10;99.90;;;;;;5039125;28;20025;-83
2023/02/04 09:45:23;;;;;;;29.30;4.80;;;9.20;99.90;;;;;;5056637;28;20071;-83
2023/02/04 09:47:50;;;;;;;19.67;4.10;;;9.30;99.90;;;;;;5055523;28;20028;-82
2023/02/04 09:50:19;;;;;;;29.67;4.50;;;9.40;99.90;;;;;;5053560;28;20025;-81
2023/02/04 09:52:47;;;;;;;24.17;4.30;;;9.60;99.90;;;;;;5050398;28;20024;-82
2023/02/04 09:55:14;;;;;;;22.40;3.73;;;9.70;99.90;;;;;;5035254;28;20037;-81
2023/02/04 09:57:40;;;;;;;19.63;4.27;;;9.90;99.90;;;;;;5054456;28;20501;-81
2023/02/04 10:00:15;;;;;;;21.67;4.73;;;10.10;99.90;;;;;;5056962;28;20107;-82
2023/02/04 10:02:41;;;;;;;27.35;4.43;;;10.40;99.90;;;;;;5054614;28;20504;-82
2023/02/04 10:05:18;;;;;;;25.27;4.28;;;10.70;99.90;;;;;;5033262;28;20029;-83
2023/02/04 10:07:45;;;;;;;19.30;4.28;;;11.20;99.90;;;;;;5056504;28;20096;-82
2023/02/04 10:10:19;;;;;;;18.20;3.42;;;11.70;99.90;;;;;;5036757;28;20029;-82
2023/02/04 10:12:48;;;;;;;17.35;3.58;;;12.30;99.90;;;;;;5054551;28;20040;-82
2023/02/04 10:15:20;;;;;;;23.75;4.75;;;12.80;99.90;;;;;;5053082;28;20049;-82
2023/02/04 10:17:53;;;;;;;23.50;4.13;;;13.50;99.90;;;;;;5037148;28;20087;-83
2023/02/04 10:20:23;;;;;;;23.38;4.10;;;14.20;99.90;;;;;;5052316;28;20025;-80
2023/02/04 10:22:52;;;;;;;21.42;4.63;;;14.80;99.90;;;;;;5052965;28;20036;-80
2023/02/04 10:25:21;;;;;;;16.60;3.70;;;15.40;99.90;;;;;;5053437;28;20108;-81
2023/02/04 10:27:47;;;;;;;17.60;4.53;;;15.70;99.90;;;;;;5055718;28;20025;-81
2023/02/04 10:30:25;;;;;;;16.73;3.83;;;16.10;99.90;;;;;;5055813;28;20100;-81
2023/02/04 10:32:51;;;;;;;18.85;3.72;;;16.60;99.90;;;;;;5054573;28;20025;-81
2023/02/04 10:35:19;;;;;;;17.75;4.25;;;17.00;99.90;;;;;;5055419;28;20041;-81
2023/02/04 10:37:45;;;;;;;20.73;4.70;;;17.40;99.70;;;;;;5054414;28;20504;-81
2023/02/04 10:40:28;;;;;;;16.25;3.92;;;17.90;97.60;;;;;;5054234;28;20492;-81
2023/02/04 10:42:54;;;;;;;18.95;4.20;;;18.40;93.20;;;;;;5055763;28;20028;-81
2023/02/04 10:45:28;;;;;;;19.27;4.22;;;18.70;91.70;;;;;;5055890;28;20053;-81
2023/02/04 10:47:56;;;;;;;16.85;3.72;;;19.00;89.20;;;;;;5053961;28;20473;-81
2023/02/04 10:50:25;;;;;;;17.95;3.63;;;19.40;87.30;;;;;;5037389;28;20082;-82
2023/02/04 10:54:28;;;;;;;22.90;4.50;;;19.50;85.40;;;;;;5053660;28;20021;-81
2023/02/04 10:55:45;;;;;;;12.88;3.30;;;19.30;82.70;;;;;;5055393;28;20448;-81
2023/02/04 10:58:14;;;;;;;17.40;3.58;;;19.10;81.30;;;;;;5044205;28;20481;-82
2023/02/04 11:00:40;;;;;;;19.38;3.72;;;19.20;79.90;;;;;;5027342;28;20485;-82
2023/02/04 11:03:10;;;;;;;19.98;4.60;;;19.10;77.60;;;;;;5044604;28;20013;-81
2023/02/04 11:05:37;;;;;;;18.08;3.60;;;19.00;76.50;;;;;;5042105;28;20030;-81
2023/02/04 11:08:23;;;;;;;18.02;3.65;;;19.10;74.80;;;;;;5043226;28;20095;-81
2023/02/04 11:10:53;;;;;;;16.92;3.75;;;19.30;73.60;;;;;;5042549;28;20048;-81
2023/02/04 11:13:25;;;;;;;13.82;3.25;;;19.70;73.30;;;;;;5044873;28;20044;-81
2023/02/04 11:16:24;;;;;;;18.48;3.75;;;20.10;72.00;;;;;;5043363;28;20382;-81
2023/02/04 11:18:58;;;;;;;19.27;4.50;;;20.70;69.60;;;;;;5051750;28;20024;-81
2023/02/04 11:21:39;;;;;;;25.13;4.28;;;20.90;69.70;;;;;;5057818;28;20017;-80
2023/02/04 11:24:21;;;;;;;17.13;3.78;;;20.80;67.40;;;;;;5051463;28;20390;-81
2023/02/04 11:26:49;;;;;;;16.38;4.70;;;20.80;65.70;;;;;;5044642;28;20048;-82
2023/02/04 11:29:14;;;;;;;18.85;4.78;;;20.80;64.80;;;;;;5051372;28;20029;-81
2023/02/04 11:31:45;;;;;;;18.58;3.75;;;20.90;64.00;;;;;;5054086;28;20109;-81
2023/02/04 11:34:14;;;;;;;17.63;4.07;;;21.10;62.90;;;;;;5052346;28;20041;-81
2023/02/04 11:37:01;;;;;;;15.50;3.85;;;21.40;62.50;;;;;;5053549;28;20554;-81
2023/02/04 11:39:48;;;;;;;13.48;3.08;;;21.70;60.70;;;;;;5054206;28;20473;-81
2023/02/04 11:42:28;;;;;;;16.80;3.85;;;21.90;61.00;;;;;;5054283;28;20025;-81
2023/02/04 11:45:00;;;;;;;19.65;4.43;;;22.00;61.50;;;;;;5053098;28;20017;-81
2023/02/04 11:47:32;;;;;;;16.95;3.90;;;22.10;60.40;;;;;;5052793;28;20021;-81
2023/02/04 11:50:02;;;;;;;15.10;3.78;;;21.90;59.70;;;;;;5052933;28;20102;-81
2023/02/04 11:52:28;;;;;;;21.75;3.80;;;21.70;59.20;;;;;;5052233;28;20112;-81
2023/02/04 11:54:56;;;;;;;19.20;4.18;;;21.50;58.00;;;;;;5035179;28;20040;-81
2023/02/04 11:57:22;;;;;;;21.42;3.95;;;21.10;57.00;;;;;;5047106;28;20565;-80
2023/02/04 11:59:48;;;;;;;14.27;3.35;;;20.70;57.40;;;;;;5041858;28;20101;-82
2023/02/04 12:02:22;;;;;;;15.90;3.13;;;20.40;58.40;;;;;;5020035;28;20056;-81
2023/02/04 12:04:57;;;;;;;16.00;3.10;;;20.30;58.60;;;;;;5048916;28;20105;-81
2023/02/04 12:07:26;;;;;;;13.93;3.25;;;20.60;58.50;;;;;;5033730;28;20025;-82
2023/02/04 12:09:52;;;;;;;15.77;3.38;;;20.80;58.40;;;;;;5033316;28;20037;-82
2023/02/04 12:12:27;;;;;;;15.25;2.97;;;20.90;57.20;;;;;;5033798;28;20045;-81
2023/02/04 12:15:00;;;;;;;13.80;2.85;;;20.90;57.10;;;;;;5032367;28;20037;-82
2023/02/04 12:17:26;;;;;;;15.63;2.83;;;20.80;56.70;;;;;;5031737;28;20036;-82
2023/02/04 12:19:52;;;;;;;14.45;3.30;;;20.70;56.50;;;;;;5033035;28;20080;-81
2023/02/04 12:22:17;;;;;;;18.30;3.45;;;20.60;56.50;;;;;;5032087;28;20033;-81
2023/02/04 12:24:43;;;;;;;14.95;3.05;;;20.90;56.60;;;;;;5032630;28;20040;-81
2023/02/04 12:27:09;;;;;;;18.17;3.40;;;20.80;55.80;;;;;;5049622;28;20124;-81
2023/02/04 12:29:35;;;;;;;16.80;3.60;;;20.60;55.20;;;;;;5032459;28;20053;-81
2023/02/04 12:32:00;;;;;;;19.38;3.92;;;20.30;55.10;;;;;;5032167;28;20067;-81
2023/02/04 12:34:26;;;;;;;15.88;3.65;;;20.00;54.90;;;;;;5031965;28;20065;-81
2023/02/04 12:36:51;;;;;;;12.70;3.00;;;19.90;55.80;;;;;;5048192;28;20402;-81
2023/02/04 12:39:17;;;;;;;15.98;3.20;;;20.20;56.10;;;;;;5049329;28;20029;-81
2023/02/04 12:41:43;;;;;;;14.15;3.47;;;20.80;55.60;;;;;;5033206;28;20091;-81
2023/02/04 12:44:09;;;;;;;15.50;3.58;;;21.30;55.40;;;;;;5048123;28;20068;-81
2023/02/04 12:46:35;;;;;;;12.80;2.88;;;21.80;54.70;;;;;;5048672;28;20029;-81